Time;durP1;ratioP1;P1;durP2;ratioP2;P2;SDS_P1;SDS_P2;PMS_P1;PMS_P2;Temp;Humidity;BMP_temperature;BMP_pressure;BME280_temperature;BME280_humidity;BME280_pressure;Samples;Min_cycle;Max_cycle;Signal;HPM_P1;HPM_P2
2023/01/17 00:02:07;;;;;;;6.57;1.27;;;;;;;3.62;100.00;97982.09;5004164;28;20033;-93
2023/01/17 00:10:17;;;;;;;3.38;0.93;;;;;;;3.71;100.00;98023.94;5024115;28;20035;-92
2023/01/17 00:12:48;;;;;;;1.50;1.10;;;;;;;3.62;100.00;98004.22;5027216;28;20037;-91
2023/01/17 00:15:13;;;;;;;4.43;1.17;;;;;;;3.57;100.00;98035.84;5014466;28;20033;-91
2023/01/17 00:17:39;;;;;;;5.18;1.00;;;;;;;3.74;100.00;98023.13;5010509;28;20531;-87
2023/01/17 01:35:01;;;;;;;1.88;0.80;;;;;;;2.93;100.00;98183.22;5021175;28;20037;-89
2023/01/17 01:37:27;;;;;;;3.95;1.95;;;;;;;3.00;100.00;98185.22;5005883;28;20018;-90
2023/01/17 01:39:52;;;;;;;2.30;0.65;;;;;;;3.12;100.00;98178.50;5017239;28;20074;-89
2023/01/17 01:42:17;;;;;;;7.65;0.70;;;;;;;3.11;100.00;98191.53;5007687;28;20037;-90
2023/01/17 01:44:49;;;;;;;1.45;0.63;;;;;;;2.84;100.00;98182.81;5007085;28;20098;-90
2023/01/17 01:47:20;;;;;;;1.70;0.52;;;;;;;2.92;100.00;98202.94;5009757;28;20053;-90
2023/01/17 01:49:47;;;;;;;1.20;0.80;;;;;;;2.84;100.00;98205.69;5007144;28;20073;-89
2023/01/17 01:52:14;;;;;;;4.00;0.47;;;;;;;3.03;100.00;98195.47;5004569;28;20025;-89
2023/01/17 01:54:52;;;;;;;1.60;0.40;;;;;;;2.89;100.00;98217.53;5007050;28;20048;-89
2023/01/17 01:57:25;;;;;;;0.82;0.55;;;;;;;3.14;100.00;98218.41;5020371;28;20053;-89
2023/01/17 02:00:02;;;;;;;1.63;1.30;;;;;;;2.83;100.00;98222.66;5016946;28;20389;-89
2023/01/17 02:02:29;;;;;;;1.25;0.52;;;;;;;3.21;100.00;98229.44;5000350;28;20053;-89
2023/01/17 02:04:56;;;;;;;5.30;0.70;;;;;;;3.23;100.00;98234.59;5003369;28;20578;-90
2023/01/17 02:07:32;;;;;;;1.55;0.65;;;;;;;3.22;100.00;98241.28;5015839;28;20033;-90
2023/01/17 02:09:58;;;;;;;1.73;0.80;;;;;;;3.34;100.00;98249.19;5004314;28;20401;-90
2023/01/17 02:12:24;;;;;;;2.88;1.42;;;;;;;3.06;100.00;98249.97;5002427;28;20029;-89
2023/01/17 02:14:50;;;;;;;6.43;1.15;;;;;;;2.91;100.00;98240.84;5005725;28;20053;-90
2023/01/17 02:17:35;;;;;;;9.32;1.08;;;;;;;3.14;100.00;98256.28;5011536;28;20087;-90
2023/01/17 02:20:41;;;;;;;1.77;0.73;;;;;;;3.20;100.00;98263.78;5019795;28;20026;-90
2023/01/17 02:23:17;;;;;;;1.65;0.70;;;;;;;3.28;100.00;98256.31;5003993;28;20057;-90
2023/01/17 02:26:12;;;;;;;4.78;0.80;;;;;;;3.24;100.00;98261.03;5020378;28;20055;-90
2023/01/17 02:28:53;;;;;;;0.70;0.70;;;;;;;3.34;100.00;98270.53;5005876;28;20105;-88
2023/01/17 02:31:37;;;;;;;7.07;0.98;;;;;;;3.23;100.00;98271.31;5023806;28;20128;-89
2023/01/17 02:34:32;;;;;;;2.50;0.90;;;;;;;2.87;100.00;98259.38;5007366;28;20031;-89
2023/01/17 02:37:24;;;;;;;4.78;0.80;;;;;;;3.33;100.00;98275.28;5000210;28;20029;-89
2023/01/17 02:39:59;;;;;;;3.85;0.90;;;;;;;3.41;100.00;98276.84;5023325;28;20036;-89
2023/01/17 02:42:29;;;;;;;5.88;1.95;;;;;;;3.47;100.00;98286.34;5006663;28;20037;-89
2023/01/17 02:44:55;;;;;;;5.35;1.25;;;;;;;3.39;100.00;98279.22;5006273;28;20033;-89
2023/01/17 02:47:25;;;;;;;4.05;1.00;;;;;;;3.23;100.00;98300.94;5011610;28;20307;-88
2023/01/17 02:50:04;;;;;;;7.72;0.82;;;;;;;3.14;100.00;98294.97;5002047;28;20490;-90
2023/01/17 02:53:07;;;;;;;1.85;0.88;;;;;;;3.22;100.00;98313.16;5012278;28;20033;-89
2023/01/17 02:55:38;;;;;;;4.22;1.15;;;;;;;3.07;100.00;98311.56;5009180;28;20156;-89
2023/01/17 02:58:27;;;;;;;4.68;1.08;;;;;;;3.17;100.00;98319.88;5012261;28;20034;-88
2023/01/17 03:01:10;;;;;;;1.80;0.82;;;;;;;3.00;100.00;98321.41;5009709;28;20021;-89
2023/01/17 03:03:56;;;;;;;4.72;1.05;;;;;;;3.13;100.00;98327.34;5011662;28;20037;-89
2023/01/17 03:06:57;;;;;;;1.98;1.02;;;;;;;2.96;100.00;98320.59;5021329;28;20083;-87
2023/01/17 03:09:25;;;;;;;2.22;0.80;;;;;;;3.04;100.00;98327.72;5023874;28;20397;-89
2023/01/17 03:11:51;;;;;;;6.22;1.10;;;;;;;3.22;100.00;98325.00;5007660;28;20022;-88
2023/01/17 03:14:16;;;;;;;5.07;1.17;;;;;;;3.16;100.00;98318.31;5004353;28;20025;-88
2023/01/17 03:16:42;;;;;;;8.32;1.33;;;;;;;3.07;100.00;98317.84;5001894;28;20041;-88
2023/01/17 03:19:08;;;;;;;1.17;0.93;;;;;;;3.14;100.00;98314.31;5005170;28;20121;-88
2023/01/17 03:21:34;;;;;;;4.70;1.10;;;;;;;3.28;100.00;98333.72;5013081;28;20100;-88
2023/01/17 03:23:59;;;;;;;5.72;1.35;;;;;;;3.30;100.00;98325.03;5002205;28;20048;-88
2023/01/17 03:26:24;;;;;;;10.95;1.05;;;;;;;2.97;100.00;98313.91;5002640;28;20593;-89
2023/01/17 03:28:50;;;;;;;8.07;1.95;;;;;;;3.15;100.00;98326.97;5003263;28;20673;-88
2023/01/17 03:31:16;;;;;;;4.80;1.00;;;;;;;3.24;100.00;98332.91;5004125;28;20069;-88
2023/01/17 03:33:42;;;;;;;1.77;0.70;;;;;;;3.08;100.00;98325.00;5001056;28;20045;-89
2023/01/17 03:36:07;;;;;;;4.07;1.08;;;;;;;3.14;100.00;98333.66;5000461;28;20034;-88
2023/01/17 03:38:33;;;;;;;1.88;0.88;;;;;;;3.13;100.00;98321.03;4998431;28;20541;-89
2023/01/17 03:40:58;;;;;;;5.60;1.52;;;;;;;2.90;100.00;98330.44;5006658;28;20026;-88
2023/01/17 03:43:23;;;;;;;3.53;1.13;;;;;;;2.75;100.00;98332.34;5006216;28;20112;-87
2023/01/17 03:45:50;;;;;;;6.72;2.35;;;;;;;3.09;100.00;98358.94;5008158;28;20044;-88
2023/01/17 03:48:17;;;;;;;7.35;0.90;;;;;;;2.54;100.00;98323.97;5006934;28;20049;-88
2023/01/17 03:50:42;;;;;;;2.78;0.68;;;;;;;2.65;100.00;98336.63;5004016;28;20112;-88
2023/01/17 03:53:07;;;;;;;3.78;0.93;;;;;;;2.58;100.00;98327.53;5000056;28;20482;-88
2023/01/17 03:55:33;;;;;;;11.88;2.67;;;;;;;2.42;100.00;98330.59;5001745;28;20630;-89
2023/01/17 03:57:58;;;;;;;6.15;0.90;;;;;;;2.70;100.00;98342.97;5001277;28;20042;-88
2023/01/17 04:00:24;;;;;;;7.70;1.20;;;;;;;2.79;100.00;98355.25;5013047;28;20507;-89
2023/01/17 04:02:49;;;;;;;4.30;1.02;;;;;;;2.61;100.00;98341.38;5004617;28;20041;-89
2023/01/17 04:05:14;;;;;;;5.18;1.52;;;;;;;2.92;100.00;98355.69;4994867;28;20021;-87
2023/01/17 04:07:40;;;;;;;6.47;1.40;;;;;;;2.83;100.00;98355.28;5004374;28;20069;-89
2023/01/17 04:10:06;;;;;;;4.22;1.55;;;;;;;2.48;100.00;98344.84;5005408;28;20045;-89
2023/01/17 04:12:31;;;;;;;6.35;1.45;;;;;;;2.33;100.00;98363.28;5003206;28;20133;-88
2023/01/17 04:14:57;;;;;;;8.48;1.00;;;;;;;2.44;100.00;98364.13;5001720;28;20038;-88
2023/01/17 04:17:22;;;;;;;8.98;1.58;;;;;;;2.43;100.00;98359.78;5006457;28;20108;-88
2023/01/17 04:19:47;;;;;;;5.03;1.10;;;;;;;2.16;100.00;98365.53;5005554;28;20113;-88
2023/01/17 04:22:13;;;;;;;5.40;1.05;;;;;;;2.33;100.00;98363.28;5001937;28;20088;-88
2023/01/17 04:24:38;;;;;;;5.43;1.30;;;;;;;2.45;100.00;98362.97;5003664;28;20033;-88
2023/01/17 04:27:04;;;;;;;5.72;1.30;;;;;;;2.47;100.00;98357.84;5004102;28;20038;-89
2023/01/17 04:29:29;;;;;;;7.00;1.30;;;;;;;2.12;100.00;98347.34;5003319;28;20022;-88
2023/01/17 04:31:55;;;;;;;5.55;1.00;;;;;;;2.39;100.00;98370.03;5005884;28;20502;-89
2023/01/17 04:34:20;;;;;;;7.60;1.63;;;;;;;2.18;100.00;98370.66;4996516;28;20088;-89
2023/01/17 04:36:46;;;;;;;6.78;0.93;;;;;;;2.06;100.00;98370.97;4999674;28;20038;-89
2023/01/17 04:39:11;;;;;;;4.88;0.70;;;;;;;2.28;100.00;98374.66;5004623;28;20117;-88
2023/01/17 04:41:36;;;;;;;2.30;0.85;;;;;;;2.40;100.00;98368.84;5004963;28;20774;-88
2023/01/17 04:44:03;;;;;;;2.70;0.73;;;;;;;2.43;100.00;98373.59;5004485;28;20132;-88
2023/01/17 04:46:28;;;;;;;6.10;1.13;;;;;;;2.22;100.00;98352.94;5004121;28;20030;-89
2023/01/17 04:48:54;;;;;;;5.47;1.20;;;;;;;2.32;100.00;98381.00;5001028;28;20036;-89
2023/01/17 04:51:19;;;;;;;10.68;1.25;;;;;;;2.32;100.00;98375.47;5001544;28;20053;-87
2023/01/17 04:53:44;;;;;;;3.72;0.75;;;;;;;2.55;100.00;98370.53;4999137;28;20040;-88
2023/01/17 04:56:10;;;;;;;5.40;1.20;;;;;;;2.51;100.00;98382.69;4998534;28;20030;-88
2023/01/17 04:58:35;;;;;;;4.85;1.20;;;;;;;2.46;100.00;98353.50;5000174;28;20160;-88
2023/01/17 05:01:06;;;;;;;2.67;0.93;;;;;;;2.16;100.00;98376.56;5002029;28;20033;-88
2023/01/17 05:03:32;;;;;;;1.35;0.73;;;;;;;2.36;100.00;98379.06;5004150;28;20070;-89
2023/01/17 05:05:57;;;;;;;7.70;0.98;;;;;;;2.27;100.00;98392.41;4999872;28;20030;-89
2023/01/17 05:08:23;;;;;;;2.10;0.65;;;;;;;1.85;100.00;98388.13;5009412;28;20099;-89
2023/01/17 05:10:48;;;;;;;4.03;0.80;;;;;;;2.17;100.00;98397.47;5004388;28;20053;-88
2023/01/17 05:13:14;;;;;;;6.88;0.90;;;;;;;2.04;100.00;98401.69;5008296;28;20065;-89
2023/01/17 05:15:40;;;;;;;5.63;1.13;;;;;;;2.20;100.00;98393.94;5010183;28;20382;-89
2023/01/17 05:18:07;;;;;;;4.88;0.93;;;;;;;2.02;100.00;98406.78;5004692;28;20057;-89
2023/01/17 05:20:34;;;;;;;5.97;0.93;;;;;;;2.03;100.00;98405.63;5006895;28;20057;-88
2023/01/17 05:23:00;;;;;;;6.68;0.90;;;;;;;2.05;100.00;98403.28;5001045;28;20034;-87
2023/01/17 05:25:28;;;;;;;7.70;0.93;;;;;;;2.07;100.00;98411.97;5017351;28;20040;-89
2023/01/17 05:27:54;;;;;;;1.60;1.00;;;;;;;2.41;100.00;98420.13;5005936;28;20074;-88
2023/01/17 05:30:20;;;;;;;4.50;1.05;;;;;;;2.31;100.00;98399.53;5004433;28;20066;-89
2023/01/17 05:32:51;;;;;;;6.43;1.10;;;;;;;2.16;100.00;98417.97;4990653;28;20039;-88
2023/01/17 05:35:18;;;;;;;6.07;1.48;;;;;;;2.22;100.00;98427.47;5002913;28;20044;-88
2023/01/17 05:37:48;;;;;;;3.97;0.93;;;;;;;1.71;100.00;98422.69;5007754;28;20911;-89
2023/01/17 05:40:23;;;;;;;6.93;1.40;;;;;;;2.03;100.00;98435.97;5021388;28;20018;-89
2023/01/17 05:42:51;;;;;;;7.32;0.85;;;;;;;1.97;100.00;98440.25;5003619;28;20660;-87
2023/01/17 05:45:19;;;;;;;4.55;1.63;;;;;;;2.11;100.00;98445.09;4995749;28;20390;-87
2023/01/17 05:47:46;;;;;;;3.63;1.80;;;;;;;2.08;100.00;98441.13;5000383;28;20033;-88
2023/01/17 05:50:14;;;;;;;6.30;1.08;;;;;;;1.77;100.00;98459.78;4991541;28;20021;-88
2023/01/17 05:52:39;;;;;;;3.53;1.20;;;;;;;1.46;100.00;98451.94;4996249;28;20069;-87
2023/01/17 05:55:06;;;;;;;6.97;1.20;;;;;;;1.86;100.00;98445.69;4995844;28;20049;-88
2023/01/17 05:57:32;;;;;;;6.32;1.35;;;;;;;1.73;100.00;98441.59;5000687;28;20022;-88
2023/01/17 05:59:57;;;;;;;2.20;1.13;;;;;;;1.83;100.00;98463.78;4998933;28;20037;-88
2023/01/17 06:02:22;;;;;;;4.63;1.48;;;;;;;1.89;100.00;98438.59;4999043;28;20053;-87
2023/01/17 06:04:47;;;;;;;12.55;1.50;;;;;;;1.85;100.00;98468.13;5002333;28;20030;-88
2023/01/17 06:07:13;;;;;;;9.10;1.40;;;;;;;1.90;100.00;98456.72;4999880;28;20025;-88
2023/01/17 06:09:38;;;;;;;10.35;1.40;;;;;;;1.81;100.00;98451.53;5001431;28;20061;-87
2023/01/17 06:12:04;;;;;;;7.28;1.10;;;;;;;1.73;100.00;98456.19;5003261;28;20603;-87
2023/01/17 06:14:29;;;;;;;9.38;1.25;;;;;;;1.75;100.00;98456.59;5001854;28;20098;-87
2023/01/17 06:16:55;;;;;;;9.82;1.90;;;;;;;1.57;100.00;98467.41;5008096;28;20053;-88
2023/01/17 06:19:20;;;;;;;6.20;1.45;;;;;;;1.63;100.00;98473.41;5007744;28;20066;-87
2023/01/17 06:21:45;;;;;;;8.30;1.80;;;;;;;1.59;100.00;98461.53;5022493;28;20037;-87
2023/01/17 06:24:11;;;;;;;4.53;1.15;;;;;;;1.65;100.00;98471.06;5005838;28;20075;-87
2023/01/17 06:26:36;;;;;;;7.50;1.20;;;;;;;1.79;100.00;98474.00;5023317;28;20099;-87
2023/01/17 06:29:01;;;;;;;8.63;1.35;;;;;;;1.97;100.00;98478.88;5020284;28;20037;-87
2023/01/17 06:31:27;;;;;;;5.50;1.35;;;;;;;1.81;100.00;98488.19;5019026;28;20030;-87
2023/01/17 06:33:52;;;;;;;3.10;0.88;;;;;;;1.83;100.00;98480.34;5005959;28;20738;-87
2023/01/17 06:36:17;;;;;;;33.70;3.65;;;;;;;1.53;100.00;98490.63;5016440;28;20052;-87
2023/01/17 06:38:43;;;;;;;5.78;1.75;;;;;;;1.58;100.00;98493.03;5008972;28;20037;-87
2023/01/17 06:41:08;;;;;;;3.88;1.33;;;;;;;1.35;100.00;98496.72;5007575;28;20025;-87
2023/01/17 06:43:34;;;;;;;10.15;1.33;;;;;;;1.32;100.00;98505.72;4998760;28;20526;-87
2023/01/17 06:46:00;;;;;;;5.05;1.48;;;;;;;1.69;100.00;98505.00;5019207;28;20033;-87
2023/01/17 06:48:25;;;;;;;3.30;1.20;;;;;;;1.47;100.00;98497.63;5006989;28;20364;-87
2023/01/17 06:50:51;;;;;;;4.32;1.20;;;;;;;0.93;100.00;98500.47;5028562;28;20029;-87
2023/01/17 06:53:16;;;;;;;6.13;1.48;;;;;;;1.48;100.00;98518.53;5006613;28;20116;-87
2023/01/17 06:55:42;;;;;;;4.40;1.50;;;;;;;1.34;100.00;98513.63;5027561;28;20040;-86
2023/01/17 06:58:08;;;;;;;8.45;1.63;;;;;;;2.65;100.00;98513.41;5008151;28;20035;-87
2023/01/17 07:00:34;;;;;;;3.58;1.73;;;;;;;1.91;100.00;98524.53;5021205;28;20104;-90
2023/01/17 07:03:00;;;;;;;4.13;1.30;;;;;;;1.66;100.00;98516.75;5003989;28;20051;-88
2023/01/17 07:05:27;;;;;;;4.47;1.55;;;;;;;1.81;100.00;98524.06;5011196;28;20033;-89
2023/01/17 07:07:53;;;;;;;7.28;1.20;;;;;;;1.60;100.00;98521.03;4999077;28;20493;-88
2023/01/17 07:10:18;;;;;;;8.90;1.75;;;;;;;1.98;100.00;98524.59;5004481;28;21191;-87
2023/01/17 07:12:44;;;;;;;5.50;1.45;;;;;;;1.96;100.00;98533.28;5015545;28;20017;-84
2023/01/17 07:15:10;;;;;;;4.47;1.38;;;;;;;1.63;100.00;98556.13;5021081;28;20025;-84
2023/01/17 07:17:35;;;;;;;11.52;3.38;;;;;;;1.38;100.00;98537.28;5005493;28;20049;-84
2023/01/17 07:20:01;;;;;;;3.20;1.60;;;;;;;1.49;100.00;98536.63;5006643;28;20031;-85
2023/01/17 07:22:26;;;;;;;2.67;1.58;;;;;;;1.48;100.00;98535.84;5021547;28;20036;-84
2023/01/17 07:24:57;;;;;;;5.82;2.72;;;;;;;1.40;100.00;98523.94;5021057;28;20455;-84
2023/01/17 07:27:24;;;;;;;11.05;2.88;;;;;;;1.75;100.00;98539.34;5022421;28;20116;-84
2023/01/17 07:29:49;;;;;;;10.93;2.47;;;;;;;1.76;100.00;98534.63;5007224;28;20082;-83
2023/01/17 07:32:14;;;;;;;6.55;1.95;;;;;;;1.95;100.00;98545.47;5001077;28;20080;-83
2023/01/17 07:34:40;;;;;;;5.40;1.88;;;;;;;1.56;100.00;98547.75;5018212;28;20057;-83
2023/01/17 07:37:05;;;;;;;4.47;1.63;;;;;;;1.59;100.00;98558.03;5024535;28;20124;-83
2023/01/17 07:39:30;;;;;;;9.20;2.20;;;;;;;1.87;100.00;98540.25;5031511;28;20033;-83
2023/01/17 07:41:56;;;;;;;3.83;2.22;;;;;;;1.62;100.00;98533.28;5006154;28;20358;-84
2023/01/17 07:44:21;;;;;;;7.95;2.20;;;;;;;1.51;100.00;98532.34;5022836;28;20120;-83
2023/01/17 07:46:47;;;;;;;3.50;1.95;;;;;;;1.15;100.00;98539.34;5011899;28;20039;-83
2023/01/17 07:49:13;;;;;;;12.23;2.33;;;;;;;1.25;100.00;98538.69;5026369;28;20029;-84
2023/01/17 07:51:38;;;;;;;7.47;2.28;;;;;;;1.30;100.00;98540.34;5023396;28;20025;-83
2023/01/17 07:54:04;;;;;;;11.55;2.05;;;;;;;1.58;100.00;98532.44;5007445;28;20029;-83
2023/01/17 07:56:29;;;;;;;3.65;2.10;;;;;;;1.04;100.00;98538.41;5004253;28;20504;-83
2023/01/17 07:58:55;;;;;;;3.80;2.33;;;;;;;1.24;100.00;98559.13;5027721;28;20025;-83
2023/01/17 08:01:20;;;;;;;6.10;2.63;;;;;;;1.38;100.00;98531.00;5008130;28;20100;-84
2023/01/17 08:03:49;;;;;;;4.15;2.05;;;;;;;1.69;100.00;98545.56;5008758;28;20033;-84
2023/01/17 08:06:19;;;;;;;5.03;2.05;;;;;;;1.39;100.00;98538.91;5003749;28;20028;-84
2023/01/17 08:08:45;;;;;;;9.45;2.10;;;;;;;1.34;100.00;98558.50;5007923;28;20021;-83
2023/01/17 08:11:10;;;;;;;5.30;1.90;;;;;;;1.50;100.00;98529.97;5023598;28;20093;-83
2023/01/17 08:13:35;;;;;;;6.25;1.90;;;;;;;1.25;100.00;98554.44;5022150;28;20486;-83
2023/01/17 08:16:02;;;;;;;8.20;1.80;;;;;;;1.18;100.00;98546.84;5011805;28;20029;-85
2023/01/17 08:18:28;;;;;;;13.77;3.55;;;;;;;1.17;100.00;98548.03;5022298;28;20026;-83
2023/01/17 08:20:53;;;;;;;5.38;1.95;;;;;;;1.28;100.00;98526.13;5018599;28;20428;-84
2023/01/17 08:23:19;;;;;;;4.90;1.52;;;;;;;1.21;100.00;98548.88;5021268;28;20068;-85
2023/01/17 08:25:45;;;;;;;7.38;2.20;;;;;;;1.02;100.00;98561.59;5004073;28;20080;-84
2023/01/17 08:28:10;;;;;;;6.05;2.17;;;;;;;1.14;100.00;98546.00;5018546;28;20535;-83
2023/01/17 08:30:36;;;;;;;3.28;1.65;;;;;;;1.57;100.00;98565.91;5007373;28;20699;-83
2023/01/17 08:33:01;;;;;;;7.25;2.30;;;;;;;1.68;100.00;98546.72;5019095;28;20557;-83
2023/01/17 08:35:27;;;;;;;5.90;2.55;;;;;;;1.57;100.00;98560.38;5020663;28;20034;-83
2023/01/17 08:37:54;;;;;;;5.57;2.28;;;;;;;1.51;100.00;98559.91;5011169;28;20033;-83
2023/01/17 08:40:19;;;;;;;5.22;2.25;;;;;;;1.70;100.00;98555.41;5008221;28;20021;-83
2023/01/17 08:42:56;;;;;;;5.85;1.88;;;;;;;1.37;100.00;98563.28;5025253;28;20139;-84
2023/01/17 08:45:21;;;;;;;5.13;2.15;;;;;;;1.54;100.00;98561.94;5027564;28;20107;-83
2023/01/17 08:47:47;;;;;;;5.05;2.70;;;;;;;1.45;100.00;98568.88;5022493;28;20132;-84
2023/01/17 08:50:12;;;;;;;3.55;2.25;;;;;;;1.44;100.00;98567.31;5026995;28;20057;-84
2023/01/17 08:52:37;;;;;;;9.07;2.33;;;;;;;1.40;100.00;98573.56;5006759;28;20106;-83
2023/01/17 08:55:04;;;;;;;8.38;2.30;;;;;;;1.47;100.00;98569.31;5009055;28;20057;-84
2023/01/17 08:57:30;;;;;;;10.65;2.47;;;;;;;1.72;100.00;98573.19;5002899;28;20528;-84
2023/01/17 08:59:55;;;;;;;8.95;2.50;;;;;;;1.90;100.00;98575.34;5027936;28;20120;-83
2023/01/17 09:02:23;;;;;;;9.20;2.13;;;;;;;1.70;100.00;98577.47;5018428;28;20031;-84
2023/01/17 09:04:49;;;;;;;6.35;2.03;;;;;;;1.69;100.00;98573.94;5003870;28;20054;-84
2023/01/17 09:07:16;;;;;;;5.25;1.70;;;;;;;1.49;100.00;98570.50;5005827;28;20455;-83
2023/01/17 09:09:41;;;;;;;10.30;2.17;;;;;;;1.56;100.00;98569.81;5005689;28;20220;-84
2023/01/17 09:12:07;;;;;;;6.70;2.83;;;;;;;1.79;100.00;98583.50;5018925;28;20112;-84
2023/01/17 09:14:33;;;;;;;6.95;2.40;;;;;;;1.87;100.00;98584.38;5004216;28;20353;-84
2023/01/17 09:16:59;;;;;;;4.78;2.55;;;;;;;1.70;100.00;98570.00;5019531;28;20062;-83
2023/01/17 09:19:25;;;;;;;4.85;3.00;;;;;;;1.72;100.00;98584.22;5004157;28;20029;-84
2023/01/17 09:21:50;;;;;;;11.57;3.13;;;;;;;1.90;100.00;98583.63;5020484;28;20044;-84
2023/01/17 09:24:15;;;;;;;6.68;2.08;;;;;;;1.71;100.00;98585.38;5023134;28;20029;-83
2023/01/17 09:26:41;;;;;;;10.73;2.65;;;;;;;1.77;100.00;98586.66;5017588;28;20065;-84
2023/01/17 09:29:06;;;;;;;6.80;2.30;;;;;;;1.75;100.00;98593.69;5005379;28;20453;-83
2023/01/17 09:31:31;;;;;;;9.65;2.28;;;;;;;1.87;100.00;98585.19;5002043;28;20057;-83
2023/01/17 09:33:57;;;;;;;9.73;3.55;;;;;;;1.85;100.00;98581.22;5021721;28;20058;-84
2023/01/17 09:36:27;;;;;;;11.07;3.05;;;;;;;1.98;100.00;98585.31;5012343;28;20080;-83
2023/01/17 09:39:03;;;;;;;14.13;3.58;;;;;;;1.74;100.00;98590.16;5010943;28;20053;-83
2023/01/17 09:41:43;;;;;;;7.80;2.60;;;;;;;1.90;100.00;98597.41;5022133;28;20048;-83
2023/01/17 09:44:23;;;;;;;9.95;2.58;;;;;;;1.75;100.00;98602.78;5011676;28;20022;-83
2023/01/17 09:46:52;;;;;;;7.05;2.83;;;;;;;1.91;100.00;98608.09;5007564;28;20026;-83
2023/01/17 09:49:41;;;;;;;5.97;3.28;;;;;;;1.83;100.00;98615.50;5025339;28;20033;-84
2023/01/17 09:52:16;;;;;;;8.90;2.83;;;;;;;2.24;100.00;98620.31;5025368;28;20041;-82
2023/01/17 09:54:45;;;;;;;11.70;2.80;;;;;;;2.07;100.00;98626.41;5023585;28;20111;-81
2023/01/17 09:57:58;;;;;;;11.90;2.85;;;;;;;1.90;100.00;98622.25;5007764;28;20430;-82
2023/01/17 10:00:32;;;;;;;6.63;2.60;;;;;;;1.76;100.00;98629.19;4995322;28;20037;-81
2023/01/17 10:03:27;;;;;;;9.95;2.75;;;;;;;1.86;100.00;98621.44;5010483;28;20496;-81
2023/01/17 10:06:37;;;;;;;9.68;2.38;;;;;;;1.89;100.00;98634.47;5004903;28;20029;-81
2023/01/17 10:09:36;;;;;;;3.67;2.50;;;;;;;1.78;100.00;98631.56;5013378;28;20037;-81
2023/01/17 10:12:19;;;;;;;15.68;2.78;;;;;;;1.66;100.00;98629.81;5022742;28;20477;-81
2023/01/17 10:14:57;;;;;;;;;;;;;;;1.88;100.00;98646.66;5010437;28;20392;-81
2023/01/17 10:17:44;;;;;;;12.60;3.13;;;;;;;1.88;100.00;98641.97;5009229;28;20338;-82
2023/01/17 10:20:44;;;;;;;4.82;3.00;;;;;;;1.86;100.00;98638.00;5028564;28;20462;-81
2023/01/17 10:23:54;;;;;;;7.40;2.80;;;;;;;1.83;100.00;98648.59;5012830;28;20053;-81
2023/01/17 10:26:23;;;;;;;5.68;3.10;;;;;;;1.88;100.00;98635.63;4982143;28;20552;-82
2023/01/17 10:28:51;;;;;;;5.60;2.78;;;;;;;1.99;100.00;98642.09;5025982;28;20432;-82
2023/01/17 10:31:24;;;;;;;9.18;3.15;;;;;;;2.03;100.00;98649.25;5007892;28;20032;-83
2023/01/17 10:33:54;;;;;;;10.05;3.58;;;;;;;1.83;100.00;98651.34;5026759;28;20385;-82
2023/01/17 10:36:31;;;;;;;11.90;3.45;;;;;;;2.31;100.00;98641.69;5007792;28;20042;-81
2023/01/17 10:39:00;;;;;;;12.50;3.55;;;;;;;2.14;100.00;98654.88;5022961;28;20028;-81
2023/01/17 10:41:34;;;;;;;7.53;3.10;;;;;;;2.05;100.00;98659.91;5009118;28;20021;-81
2023/01/17 10:44:14;;;;;;;8.95;3.15;;;;;;;2.13;100.00;98658.84;5022072;28;20037;-81
2023/01/17 10:46:46;;;;;;;16.23;3.75;;;;;;;2.02;100.00;98647.66;5007124;28;20031;-81
2023/01/17 10:49:19;;;;;;;6.80;3.35;;;;;;;2.07;100.00;98654.00;5007143;28;20171;-81
2023/01/17 10:52:03;;;;;;;9.70;3.83;;;;;;;2.19;100.00;98651.81;5002502;28;20024;-81
2023/01/17 10:54:53;;;;;;;6.38;3.65;;;;;;;2.19;100.00;98657.34;5025330;28;20113;-82
2023/01/17 10:57:24;;;;;;;11.10;3.60;;;;;;;2.15;100.00;98659.25;5023001;28;20040;-81
2023/01/17 10:59:51;;;;;;;9.90;3.22;;;;;;;2.14;100.00;98654.88;5021138;28;20044;-83
2023/01/17 11:02:19;;;;;;;9.00;3.47;;;;;;;2.16;100.00;98655.31;5004830;28;20108;-81
2023/01/17 11:04:47;;;;;;;8.07;3.53;;;;;;;2.28;100.00;98656.22;5020427;28;20171;-81
2023/01/17 11:07:19;;;;;;;11.70;3.50;;;;;;;2.19;100.00;98645.47;5022250;28;20112;-82
2023/01/17 11:09:46;;;;;;;8.20;4.57;;;;;;;2.17;100.00;98650.56;5010085;28;20025;-81
2023/01/17 11:12:17;;;;;;;11.15;3.60;;;;;;;2.23;100.00;98647.13;5023795;28;20033;-81
2023/01/17 11:15:12;;;;;;;5.78;3.80;;;;;;;2.17;100.00;98647.81;5005125;28;20033;-81
2023/01/17 11:17:48;;;;;;;5.85;2.88;;;;;;;2.17;100.00;98645.06;4987631;28;20100;-81
2023/01/17 11:20:22;;;;;;;6.68;3.10;;;;;;;2.29;100.00;98655.06;5023689;28;20037;-82
2023/01/17 11:23:04;;;;;;;11.50;3.50;;;;;;;2.27;100.00;98651.88;5020260;28;20022;-82
2023/01/17 11:25:34;;;;;;;21.40;3.80;;;;;;;2.31;100.00;98650.75;5022984;28;20116;-81
2023/01/17 11:28:06;;;;;;;7.43;3.70;;;;;;;2.37;100.00;98657.53;5030531;28;20040;-81
2023/01/17 11:30:32;;;;;;;10.27;3.75;;;;;;;2.32;100.00;98654.28;5010472;28;20033;-82
2023/01/17 11:32:59;;;;;;;11.13;4.07;;;;;;;2.35;100.00;98654.34;5007239;28;20064;-81
2023/01/17 11:35:45;;;;;;;6.93;3.47;;;;;;;2.34;100.00;98652.78;5014332;28;20496;-82
2023/01/17 11:38:13;;;;;;;7.38;3.15;;;;;;;2.36;100.00;98660.66;5019716;28;20025;-81
2023/01/17 11:40:43;;;;;;;6.95;3.00;;;;;;;2.41;100.00;98652.06;5012345;28;20022;-82
2023/01/17 11:43:13;;;;;;;7.00;2.97;;;;;;;2.46;100.00;98659.97;5012082;28;20533;-81
2023/01/17 11:45:39;;;;;;;7.28;2.90;;;;;;;2.49;100.00;98650.16;5005614;28;20413;-81
2023/01/17 11:48:07;;;;;;;8.55;2.78;;;;;;;2.44;100.00;98654.03;5006652;28;20174;-83
2023/01/17 11:50:39;;;;;;;5.70;2.55;;;;;;;2.43;100.00;98649.72;5018733;28;21127;-82
2023/01/17 11:53:25;;;;;;;7.82;2.78;;;;;;;2.57;100.00;98649.88;5024448;28;20033;-82
2023/01/17 11:56:17;;;;;;;6.00;3.25;;;;;;;2.58;100.00;98645.91;5025287;28;20083;-82
2023/01/17 11:58:44;;;;;;;4.18;2.95;;;;;;;2.49;100.00;98630.81;5002568;28;21911;-82
2023/01/17 12:01:32;;;;;;;7.78;2.83;;;;;;;2.52;100.00;98643.88;5018411;28;20049;-82
2023/01/17 12:04:22;;;;;;;7.00;2.40;;;;;;;2.58;100.00;98640.38;5023722;28;20481;-81
2023/01/17 12:07:01;;;;;;;4.43;2.40;;;;;;;2.65;100.00;98636.91;5021352;28;20480;-83
2023/01/17 12:09:46;;;;;;;9.15;2.75;;;;;;;2.67;100.00;98642.06;5013867;28;20025;-81
2023/01/17 12:18:58;;;;;;;2.10;1.90;;;;;;;2.68;100.00;98627.06;5008436;28;20137;-82
2023/01/17 12:21:36;;;;;;;2.25;1.75;;;;;;;2.75;100.00;98629.91;5008431;28;20576;-82
2023/01/17 12:24:23;;;;;;;4.97;2.70;;;;;;;2.76;100.00;98634.25;5006764;28;20438;-85
2023/01/17 12:26:56;;;;;;;6.63;2.17;;;;;;;2.74;100.00;98639.34;5004971;28;20032;-83
2023/01/17 12:29:41;;;;;;;10.05;2.00;;;;;;;2.76;99.61;98628.72;5003967;28;20026;-82
2023/01/17 12:32:13;;;;;;;5.13;1.95;;;;;;;2.82;100.00;98627.19;5002496;28;20033;-83
2023/01/17 12:34:50;;;;;;;7.40;2.30;;;;;;;2.85;99.62;98626.44;5009203;28;20026;-82
2023/01/17 12:37:35;;;;;;;9.65;2.35;;;;;;;2.82;100.00;98621.66;5007657;28;20529;-82
2023/01/17 12:40:54;;;;;;;5.78;2.03;;;;;;;2.75;98.23;98616.88;5001707;28;20087;-82
2023/01/17 12:43:29;;;;;;;6.97;1.77;;;;;;;2.84;99.71;98625.63;4949227;28;20042;-82
2023/01/17 12:45:55;;;;;;;9.07;2.10;;;;;;;2.81;100.00;98611.81;5006395;28;20503;-82
2023/01/17 12:48:22;;;;;;;6.55;2.38;;;;;;;2.92;100.00;98614.66;5011165;28;20057;-82
2023/01/17 12:50:59;;;;;;;5.93;1.92;;;;;;;2.98;98.66;98627.75;5005489;28;20034;-83
2023/01/17 12:53:34;;;;;;;3.92;2.00;;;;;;;2.99;99.18;98626.56;5007999;28;20036;-82
2023/01/17 12:56:02;;;;;;;7.00;2.17;;;;;;;2.97;97.13;98628.94;5008942;28;20029;-82
2023/01/17 12:58:37;;;;;;;5.47;1.73;;;;;;;2.97;99.27;98623.41;5005927;28;20033;-82
2023/01/17 13:01:10;;;;;;;4.13;2.03;;;;;;;2.89;97.29;98629.22;5001738;28;20029;-83
2023/01/17 13:03:59;;;;;;;5.63;1.65;;;;;;;2.98;98.03;98630.50;5010190;28;20040;-83
2023/01/17 13:06:31;;;;;;;5.75;1.95;;;;;;;2.89;98.35;98627.28;5006006;28;20026;-83
2023/01/17 13:09:00;;;;;;;6.53;2.10;;;;;;;2.93;97.05;98628.09;5006246;28;20193;-82
2023/01/17 13:11:39;;;;;;;3.05;1.60;;;;;;;2.94;97.88;98624.16;5008934;28;20065;-83
2023/01/17 13:14:08;;;;;;;4.50;1.70;;;;;;;3.04;100.00;98628.97;5005316;28;20022;-82
2023/01/17 13:16:49;;;;;;;8.13;1.90;;;;;;;3.04;95.47;98631.75;4998245;28;20061;-83
2023/01/17 13:19:22;;;;;;;3.03;1.50;;;;;;;3.11;95.77;98622.72;5009751;28;20367;-82